Terminal Aerodrome Forecast
Issued by NWS

Home | Current Version | Previous Version | Text Only | Print | Product List | Glossary On
Versions: 1 2 3 4 5 6 7 8 9 10 11 12 13 14 15 16 17 18 19 20 21 22 23 24 25 26 27
881
FTUS43 KABR 120727 AAA
TAFPIR
TAF AMD
KPIR 120727Z 1207/1306 01011KT P6SM OVC009
     FM121200 03010KT P6SM -SN OVC015
     FM122200 08010KT P6SM OVC060=

USA.gov is the U.S. government's official web portal to all federal, state and local government web resources and services.